^^
Saratoga-Weather Station Historical Data
Daily Summary for July 22, 2020 Units:  Metric    English   Both
Daily Weekly Monthly Yearly Custom
  High: Low: Average:
Temperature: 4.1 °C 1.2 °C 2.9 °C
Dew Point: 2 °C -0.3 °C 1 °C
Humidity: 93% 84% 87%
Wind Speed: 6.4km/h 0km/h 1.8km/h
Wind Gust: 12.9km/h - -
Wind- - ESE
Pressure: 1028.1 hPa 1025.7 hPa -
Precipitation: 0.0 mm    
Historical Graphs
 
 
Tabular Data for July 22, 2020
Time Temperature Dew Point Pressure Wind Wind Speed Wind Gust Humidity Rainfall Rate (Hourly) solar
00:02 3.5 °C 1.7 °C 1028.1 hPa East 3.2 km/h 4.8 km/h 88% 0.0 mm 0 W/m2
00:07 3.7 °C 1.9 °C 1028.1 hPa East 6.4 km/h 6.4 km/h 88% 0.0 mm 0 W/m2
00:12 3.8 °C 1.8 °C 1028.1 hPa East 1.4 km/h 4.8 km/h 87% 0.0 mm 0 W/m2
00:17 3.7 °C 1.7 °C 1028.1 hPa Calm   3.2 km/h 87% 0.0 mm 0 W/m2
00:22 3.7 °C 1.7 °C 1028.1 hPa SW 1.4 km/h 3.2 km/h 87% 0.0 mm 0 W/m2
00:27 3.7 °C 1.7 °C 1028.1 hPa ESE 1.4 km/h 4.8 km/h 87% 0.0 mm 0 W/m2
00:32 3.8 °C 1.8 °C 1027.8 hPa North 4.7 km/h 8 km/h 87% 0.0 mm 0 W/m2
00:37 3.9 °C 1.9 °C 1028.1 hPa Calm   1.6 km/h 87% 0.0 mm 0 W/m2
00:42 3.9 °C 1.8 °C 1028.1 hPa Calm   8 km/h 86% 0.0 mm 0 W/m2
00:47 4 °C 1.9 °C 1028.1 hPa Calm   4.8 km/h 86% 0.0 mm 0 W/m2
00:52 4 °C 1.9 °C 1028.1 hPa Calm   1.6 km/h 86% 0.0 mm 0 W/m2
00:57 4.1 °C 2 °C 1028.1 hPa Calm   3.2 km/h 86% 0.0 mm 0 W/m2
01:02 4.1 °C 1.8 °C 1028.1 hPa SSW 1.4 km/h 3.2 km/h 85% 0.0 mm 0 W/m2
01:07 4 °C 1.7 °C 1027.8 hPa ENE 1.4 km/h 4.8 km/h 85% 0.0 mm 0 W/m2
01:12 3.9 °C 1.6 °C 1027.8 hPa ESE 3.2 km/h 6.4 km/h 85% 0.0 mm 0 W/m2
01:18 3.8 °C 1.7 °C 1027.8 hPa ESE 1.4 km/h 3.2 km/h 86% 0.0 mm 0 W/m2
01:23 3.8 °C 1.7 °C 1027.8 hPa East 3.2 km/h 8 km/h 86% 0.0 mm 0 W/m2
01:28 3.7 °C 1.6 °C 1027.8 hPa Calm   3.2 km/h 86% 0.0 mm 0 W/m2
01:33 3.6 °C 1.3 °C 1027.8 hPa East 1.4 km/h 8 km/h 85% 0.0 mm 0 W/m2
01:38 3.6 °C 1.5 °C 1027.8 hPa SE 1.4 km/h 4.8 km/h 86% 0.0 mm 0 W/m2
01:43 3.5 °C 1.5 °C 1028.1 hPa ESE 1.4 km/h 3.2 km/h 87% 0.0 mm 0 W/m2
01:48 3.7 °C 1.6 °C 1027.8 hPa SE 4.7 km/h 9.7 km/h 86% 0.0 mm 0 W/m2
01:53 3.9 °C 1.8 °C 1027.8 hPa SSE 1.4 km/h 1.6 km/h 86% 0.0 mm 0 W/m2
01:58 3.9 °C 1.6 °C 1027.8 hPa SSW 3.2 km/h 3.2 km/h 85% 0.0 mm 0 W/m2
02:03 3.9 °C 1.6 °C 1027.8 hPa Calm   1.6 km/h 85% 0.0 mm 0 W/m2
02:08 3.8 °C 1.3 °C 1028.1 hPa ENE 4.7 km/h 4.8 km/h 84% 0.0 mm 0 W/m2
02:13 3.8 °C 1.5 °C 1028.1 hPa Calm     85% 0.0 mm 0 W/m2
02:18 3.8 °C 1.3 °C 1028.1 hPa Calm   1.6 km/h 84% 0.0 mm 0 W/m2
02:23 3.7 °C 1.4 °C 1028.1 hPa Calm   6.4 km/h 85% 0.0 mm 0 W/m2
02:28 3.7 °C 1.4 °C 1028.1 hPa Calm   4.8 km/h 85% 0.0 mm 0 W/m2
02:33 3.8 °C 1.5 °C 1028.1 hPa Calm   6.4 km/h 85% 0.0 mm 0 W/m2
02:38 3.8 °C 1.3 °C 1028.1 hPa ENE 1.4 km/h 3.2 km/h 84% 0.0 mm 0 W/m2
02:44 3.8 °C 1.3 °C 1027.8 hPa ESE 4.7 km/h 9.7 km/h 84% 0.0 mm 0 W/m2
02:49 3.8 °C 1.3 °C 1027.8 hPa ENE 3.2 km/h 3.2 km/h 84% 0.0 mm 0 W/m2
02:54 3.7 °C 1.2 °C 1027.8 hPa ESE 3.2 km/h 6.4 km/h 84% 0.0 mm 0 W/m2
02:59 3.6 °C 1.2 °C 1027.8 hPa SSE 1.4 km/h 3.2 km/h 84% 0.0 mm 0 W/m2
03:04 3.3 °C 1 °C 1027.8 hPa SE 1.4 km/h 3.2 km/h 85% 0.0 mm 0 W/m2
03:09 3.1 °C 0.8 °C 1027.8 hPa ESE 3.2 km/h 3.2 km/h 85% 0.0 mm 0 W/m2
03:14 3 °C 0.9 °C 1027.8 hPa Calm   1.6 km/h 86% 0.0 mm 0 W/m2
03:19 2.8 °C 0.7 °C 1027.8 hPa Calm   4.8 km/h 86% 0.0 mm 0 W/m2
03:24 2.8 °C 0.9 °C 1027.8 hPa NE 1.4 km/h 3.2 km/h 87% 0.0 mm 0 W/m2
03:29 2.8 °C 0.9 °C 1027.8 hPa East 1.4 km/h 4.8 km/h 87% 0.0 mm 0 W/m2
03:34 2.8 °C 0.9 °C 1027.4 hPa East 1.4 km/h 4.8 km/h 87% 0.0 mm 0 W/m2
03:39 2.8 °C 0.9 °C 1027.4 hPa NE 4.7 km/h 6.4 km/h 87% 0.0 mm 0 W/m2
03:44 3 °C 1 °C 1027.4 hPa East 4.7 km/h 4.8 km/h 87% 0.0 mm 0 W/m2
03:49 2.9 °C 1 °C 1027.4 hPa North 4.7 km/h 4.8 km/h 87% 0.0 mm 0 W/m2
03:54 3.1 °C 1.1 °C 1027.4 hPa SE 3.2 km/h 4.8 km/h 87% 0.0 mm 0 W/m2
03:59 3.2 °C 1.2 °C 1027.4 hPa Calm   4.8 km/h 87% 0.0 mm 0 W/m2
04:04 3.4 °C 1.4 °C 1027.4 hPa Calm   8 km/h 87% 0.0 mm 0 W/m2
04:09 3.4 °C 1.3 °C 1027.4 hPa NNE 1.4 km/h 3.2 km/h 86% 0.0 mm 0 W/m2
04:14 3.4 °C 1.3 °C 1027.4 hPa Calm   4.8 km/h 86% 0.0 mm 0 W/m2
04:19 3.4 °C 1.3 °C 1027.4 hPa NE 1.4 km/h 4.8 km/h 86% 0.0 mm 0 W/m2
04:24 3.4 °C 1.3 °C 1027.4 hPa Calm   3.2 km/h 86% 0.0 mm 0 W/m2
04:29 3.4 °C 1.3 °C 1027.4 hPa Calm   6.4 km/h 86% 0.0 mm 0 W/m2
04:34 3.6 °C 1.3 °C 1027.4 hPa East 4.7 km/h 6.4 km/h 85% 0.0 mm 0 W/m2
04:39 3.6 °C 1.3 °C 1027.4 hPa ENE 1.4 km/h 4.8 km/h 85% 0.0 mm 0 W/m2
04:44 3.4 °C 1.1 °C 1027.4 hPa SSE 1.4 km/h 6.4 km/h 85% 0.0 mm 0 W/m2
04:49 3.4 °C 1.1 °C 1027.4 hPa SSE 4.7 km/h 6.4 km/h 85% 0.0 mm 0 W/m2
04:54 3.3 °C 1 °C 1027.1 hPa East 3.2 km/h 4.8 km/h 85% 0.0 mm 0 W/m2
04:59 3.2 °C 1.1 °C 1027.1 hPa SE 1.4 km/h 12.9 km/h 86% 0.0 mm 0 W/m2
05:04 3.2 °C 1.1 °C 1027.4 hPa ENE 3.2 km/h 3.2 km/h 86% 0.0 mm 0 W/m2
05:09 3.1 °C 1 °C 1027.4 hPa East 3.2 km/h 12.9 km/h 86% 0.0 mm 0 W/m2
05:14 2.9 °C 0.8 °C 1027.4 hPa Calm   1.6 km/h 86% 0.0 mm 0 W/m2
05:19 2.7 °C 0.6 °C 1027.4 hPa Calm   1.6 km/h 86% 0.0 mm 0 W/m2
05:24 2.5 °C 0.6 °C 1027.4 hPa Calm   3.2 km/h 87% 0.0 mm 0 W/m2
05:29 2.4 °C 0.5 °C 1027.4 hPa East 3.2 km/h 3.2 km/h 87% 0.0 mm 0 W/m2
05:35 2.4 °C 0.6 °C 1027.4 hPa ENE 1.4 km/h 4.8 km/h 88% 0.0 mm 0 W/m2
05:40 2.4 °C 0.6 °C 1027.4 hPa SSW 4.7 km/h 4.8 km/h 88% 0.0 mm 0 W/m2
05:45 2.3 °C 0.5 °C 1027.1 hPa Calm   1.6 km/h 88% 0.0 mm 0 W/m2
05:50 2.3 °C 0.5 °C 1027.1 hPa East 3.2 km/h 4.8 km/h 88% 0.0 mm 0 W/m2
05:55 2.4 °C 0.8 °C 1027.1 hPa Calm   3.2 km/h 89% 0.0 mm 0 W/m2
06:00 2.4 °C 0.8 °C 1026.8 hPa Calm   3.2 km/h 89% 0.0 mm 0 W/m2
06:05 2.2 °C 0.4 °C 1026.8 hPa ESE 3.2 km/h 4.8 km/h 88% 0.0 mm 0 W/m2
06:10 2.1 °C 0.3 °C 1026.8 hPa East 1.4 km/h 4.8 km/h 88% 0.0 mm 0 W/m2
06:15 2 °C 0.2 °C 1026.8 hPa Calm   4.8 km/h 88% 0.0 mm 0 W/m2
06:20 1.8 °C 0.2 °C 1026.8 hPa ESE 1.4 km/h 4.8 km/h 89% 0.0 mm 0 W/m2
06:25 1.7 °C 0.1 °C 1026.4 hPa ESE 3.2 km/h 3.2 km/h 89% 0.0 mm 0 W/m2
06:30 1.6 °C 0 °C 1026.4 hPa ESE 4.7 km/h 11.3 km/h 89% 0.0 mm 0 W/m2
06:35 1.7 °C 0.2 °C 1026.1 hPa ESE 4.7 km/h 4.8 km/h 90% 0.0 mm 0 W/m2
06:40 1.8 °C 0.3 °C 1026.1 hPa ESE 3.2 km/h 11.3 km/h 90% 0.0 mm 0 W/m2
06:45 1.8 °C 0.3 °C 1026.1 hPa East 4.7 km/h 4.8 km/h 90% 0.0 mm 0 W/m2
06:50 1.9 °C 0.4 °C 1025.7 hPa Calm   4.8 km/h 90% 0.0 mm 0 W/m2
06:55 1.9 °C 0.4 °C 1026.1 hPa East 3.2 km/h 3.2 km/h 90% 0.0 mm 0 W/m2
07:00 1.9 °C 0.4 °C 1026.1 hPa SE 3.2 km/h 9.7 km/h 90% 0.0 mm 0 W/m2
07:05 1.8 °C 0.3 °C 1026.4 hPa East 1.4 km/h 4.8 km/h 90% 0.0 mm 0 W/m2
07:10 1.8 °C 0.3 °C 1026.8 hPa South 1.4 km/h 4.8 km/h 90% 0.0 mm 0 W/m2
07:15 1.7 °C 0.2 °C 1026.8 hPa ENE 1.4 km/h 1.6 km/h 90% 0.0 mm 0 W/m2
07:20 1.6 °C 0.1 °C 1027.1 hPa Calm   3.2 km/h 90% 0.0 mm 0 W/m2
07:25 1.4 °C -0.1 °C 1027.1 hPa ENE 1.4 km/h 1.6 km/h 90% 0.0 mm 0 W/m2
07:30 1.3 °C -0.2 °C 1027.4 hPa Calm     90% 0.0 mm 0 W/m2
07:35 1.2 °C -0.3 °C 1027.4 hPa Calm   1.6 km/h 90% 0.0 mm 5 W/m2
07:41 1.2 °C -0.1 °C 1027.4 hPa Calm   1.6 km/h 91% 0.0 mm 7 W/m2
07:46 1.3 °C 0.1 °C 1027.4 hPa South 3.2 km/h 6.4 km/h 92% 0.0 mm 11 W/m2
07:51 1.4 °C 0.2 °C 1027.4 hPa Calm   1.6 km/h 92% 0.0 mm 12 W/m2
07:56 1.6 °C 0.4 °C 1027.4 hPa ENE 1.4 km/h 6.4 km/h 92% 0.0 mm 12 W/m2
08:01 2 °C 1 °C 1027.4 hPa East 4.7 km/h 6.4 km/h 93% 0.0 mm 18 W/m2
08:06 2.2 °C 0.9 °C 1027.4 hPa ESE 3.2 km/h 4.8 km/h 91% 0.0 mm 19 W/m2
08:11 2.3 °C 0.8 °C 1027.4 hPa Calm   4.8 km/h 90% 0.0 mm 25 W/m2
08:16 2.2 °C 0.7 °C 1027.4 hPa ESE 3.2 km/h 6.4 km/h 90% 0.0 mm 25 W/m2
08:21 2.2 °C 0.7 °C 1027.4 hPa Calm   4.8 km/h 90% 0.0 mm 28 W/m2
08:26 2.2 °C 0.7 °C 1027.4 hPa East 3.2 km/h 6.4 km/h 90% 0.0 mm 33 W/m2
08:31 2.4 °C 1.1 °C 1027.4 hPa NW 4.7 km/h 9.7 km/h 91% 0.0 mm 42 W/m2
Juneau County Weather
Compliments of Weather Underground - 4 mb